AEE159 LGSK-LGAV
Flight info
| Callsign | AEE159 |
|---|---|
| Flight time | 0h 21m |
| Altitude | 17000 |
| Route | SIGFO M749 ROPOX |
| Aircraft | A320/M-SDE3FGHIRWY/LB1 |
Departure
| Time | 2026-05-05 07:53 |
|---|---|
| Airport | Skiathos Island National Airport (LGSK) |
Arrival
| Time | 2026-05-05 08:14 |
|---|---|
| Airport | Athens Eleftherios Venizelos International Airport (LGAV) |
| Time | Latitude | Longitude | Altitude | Speed | Heading |
|---|---|---|---|---|---|
| 2026-05-05 07:45 | 39.17910 | 23.50237 | 39 ft | 0 kts | 289° |
| 2026-05-05 07:47 | 39.17908 | 23.50245 | 38 ft | 2 kts | 289° |
| 2026-05-05 07:47 | 39.17899 | 23.50269 | 37 ft | 6 kts | 304° |
| 2026-05-05 07:47 | 39.17881 | 23.50302 | 36 ft | 4 kts | 319° |
| 2026-05-05 07:48 | 39.17859 | 23.50314 | 39 ft | 0 kts | 15° |
| 2026-05-05 07:49 | 39.17864 | 23.50316 | 39 ft | 3 kts | 15° |
| 2026-05-05 07:49 | 39.17872 | 23.50319 | 38 ft | 0 kts | 15° |
| 2026-05-05 07:49 | 39.17908 | 23.50346 | 41 ft | 18 kts | 45° |
| 2026-05-05 07:50 | 39.17981 | 23.50486 | 46 ft | 19 kts | 24° |
| 2026-05-05 07:50 | 39.18103 | 23.50538 | 50 ft | 19 kts | 17° |
| 2026-05-05 07:50 | 39.18221 | 23.50594 | 50 ft | 17 kts | 22° |
| 2026-05-05 07:50 | 39.18335 | 23.50648 | 58 ft | 18 kts | 17° |
| 2026-05-05 07:51 | 39.18458 | 23.50698 | 59 ft | 19 kts | 15° |
| 2026-05-05 07:51 | 39.18524 | 23.50711 | 57 ft | 3 kts | 86° |
| 2026-05-05 07:51 | 39.18501 | 23.50724 | 56 ft | 5 kts | 205° |
| 2026-05-05 07:51 | 39.18472 | 23.50708 | 61 ft | 0 kts | 201° |
| 2026-05-05 07:52 | 39.18407 | 23.50677 | 60 ft | 40 kts | 200° |
| 2026-05-05 07:53 | 39.17833 | 23.50424 | 39 ft | 129 kts | 198° |
| 2026-05-05 07:53 | 39.16860 | 23.49984 | 557 ft | 146 kts | 199° |
| 2026-05-05 07:53 | 39.15867 | 23.49583 | 1404 ft | 154 kts | 200° |
| 2026-05-05 07:53 | 39.14767 | 23.49180 | 2073 ft | 175 kts | 200° |
| 2026-05-05 07:54 | 39.13546 | 23.48650 | 2649 ft | 193 kts | 202° |
| 2026-05-05 07:54 | 39.12216 | 23.48025 | 3000 ft | 211 kts | 202° |
| 2026-05-05 07:54 | 39.10783 | 23.47453 | 3453 ft | 225 kts | 189° |
| 2026-05-05 07:54 | 39.09142 | 23.47672 | 3766 ft | 253 kts | 168° |
| 2026-05-05 07:55 | 39.07354 | 23.48225 | 4303 ft | 272 kts | 167° |
| 2026-05-05 07:55 | 39.05499 | 23.48821 | 5186 ft | 278 kts | 166° |
| 2026-05-05 07:55 | 39.03610 | 23.49429 | 6089 ft | 281 kts | 166° |
| 2026-05-05 07:55 | 39.01682 | 23.50044 | 6819 ft | 294 kts | 165° |
| 2026-05-05 07:56 | 38.99616 | 23.50701 | 7230 ft | 317 kts | 165° |
| 2026-05-05 07:56 | 38.97400 | 23.51406 | 7574 ft | 339 kts | 165° |
| 2026-05-05 07:56 | 38.95040 | 23.52156 | 7852 ft | 361 kts | 165° |
| 2026-05-05 07:56 | 38.92548 | 23.52944 | 8038 ft | 383 kts | 165° |
| 2026-05-05 07:57 | 38.89885 | 23.53780 | 8447 ft | 396 kts | 165° |
| 2026-05-05 07:57 | 38.87204 | 23.54619 | 9239 ft | 397 kts | 165° |
| 2026-05-05 07:57 | 38.84507 | 23.55462 | 9947 ft | 402 kts | 164° |
| 2026-05-05 07:57 | 38.81760 | 23.56320 | 10454 ft | 409 kts | 165° |
| 2026-05-05 07:58 | 38.78992 | 23.57182 | 11174 ft | 409 kts | 165° |
| 2026-05-05 07:58 | 38.76220 | 23.58045 | 11921 ft | 409 kts | 165° |
| 2026-05-05 07:58 | 38.73560 | 23.58875 | 12648 ft | 410 kts | 165° |
| 2026-05-05 07:58 | 38.70785 | 23.59742 | 12999 ft | 411 kts | 166° |
| 2026-05-05 07:59 | 38.68004 | 23.60613 | 13095 ft | 411 kts | 166° |
| 2026-05-05 07:59 | 38.65227 | 23.61480 | 13109 ft | 411 kts | 166° |
| 2026-05-05 07:59 | 38.62381 | 23.62366 | 13112 ft | 429 kts | 166° |
| 2026-05-05 07:59 | 38.59459 | 23.63274 | 13108 ft | 434 kts | 166° |
| 2026-05-05 08:00 | 38.56521 | 23.64187 | 13107 ft | 435 kts | 166° |
| 2026-05-05 08:00 | 38.53585 | 23.65099 | 13115 ft | 436 kts | 166° |
| 2026-05-05 08:00 | 38.50633 | 23.66014 | 13109 ft | 436 kts | 166° |
| 2026-05-05 08:00 | 38.47692 | 23.66925 | 13110 ft | 436 kts | 166° |
| 2026-05-05 08:01 | 38.44743 | 23.67840 | 13114 ft | 436 kts | 166° |
| 2026-05-05 08:01 | 38.41796 | 23.68754 | 13120 ft | 436 kts | 166° |
| 2026-05-05 08:01 | 38.38845 | 23.69665 | 13108 ft | 436 kts | 166° |
| 2026-05-05 08:01 | 38.35896 | 23.70574 | 13111 ft | 436 kts | 166° |
| 2026-05-05 08:02 | 38.32938 | 23.71485 | 13111 ft | 437 kts | 166° |
| 2026-05-05 08:02 | 38.29990 | 23.72394 | 13109 ft | 437 kts | 166° |
| 2026-05-05 08:02 | 38.27034 | 23.73305 | 13110 ft | 437 kts | 166° |
| 2026-05-05 08:02 | 38.24125 | 23.74203 | 13101 ft | 433 kts | 166° |
| 2026-05-05 08:03 | 38.21232 | 23.74999 | 12798 ft | 418 kts | 172° |
| 2026-05-05 08:03 | 38.18782 | 23.75132 | 12572 ft | 403 kts | 184° |
| 2026-05-05 08:03 | 38.16090 | 23.74599 | 12323 ft | 388 kts | 196° |
| 2026-05-05 08:03 | 38.13615 | 23.73416 | 12069 ft | 373 kts | 208° |
| 2026-05-05 08:04 | 38.11402 | 23.71722 | 11536 ft | 372 kts | 214° |
| 2026-05-05 08:04 | 38.09225 | 23.69899 | 10665 ft | 377 kts | 214° |
| 2026-05-05 08:04 | 38.07028 | 23.68042 | 9802 ft | 382 kts | 214° |
| 2026-05-05 08:04 | 38.04810 | 23.66165 | 8867 ft | 385 kts | 214° |
| 2026-05-05 08:05 | 38.02574 | 23.64280 | 7996 ft | 386 kts | 214° |
| 2026-05-05 08:05 | 38.00331 | 23.62399 | 7112 ft | 387 kts | 214° |
| 2026-05-05 08:05 | 37.98104 | 23.60539 | 6656 ft | 376 kts | 214° |
| 2026-05-05 08:05 | 37.95975 | 23.58766 | 6535 ft | 357 kts | 214° |
| 2026-05-05 08:06 | 37.93944 | 23.57079 | 6404 ft | 340 kts | 214° |
| 2026-05-05 08:06 | 37.92008 | 23.55467 | 6245 ft | 328 kts | 214° |
| 2026-05-05 08:06 | 37.90057 | 23.54006 | 5698 ft | 321 kts | 202° |
| 2026-05-05 08:06 | 37.87940 | 23.53358 | 5183 ft | 309 kts | 183° |
| 2026-05-05 08:07 | 37.85857 | 23.53627 | 4652 ft | 298 kts | 163° |
| 2026-05-05 08:07 | 37.84017 | 23.54727 | 4182 ft | 287 kts | 143° |
| 2026-05-05 08:07 | 37.82625 | 23.56419 | 4059 ft | 275 kts | 126° |
| 2026-05-05 08:07 | 37.81699 | 23.58498 | 3929 ft | 270 kts | 108° |
| 2026-05-05 08:08 | 37.81249 | 23.60787 | 3801 ft | 265 kts | 99° |
| 2026-05-05 08:08 | 37.80892 | 23.63037 | 3680 ft | 256 kts | 99° |
| 2026-05-05 08:08 | 37.80544 | 23.65199 | 3573 ft | 245 kts | 100° |
| 2026-05-05 08:08 | 37.80208 | 23.67271 | 3447 ft | 235 kts | 100° |
| 2026-05-05 08:09 | 37.79886 | 23.69257 | 3320 ft | 226 kts | 100° |
| 2026-05-05 08:09 | 37.79579 | 23.71143 | 3194 ft | 218 kts | 100° |
| 2026-05-05 08:09 | 37.79277 | 23.72998 | 3095 ft | 211 kts | 99° |
| 2026-05-05 08:09 | 37.78989 | 23.74781 | 3001 ft | 204 kts | 99° |
| 2026-05-05 08:10 | 37.78710 | 23.76519 | 3005 ft | 201 kts | 98° |
| 2026-05-05 08:10 | 37.78742 | 23.78252 | 3007 ft | 197 kts | 71° |
| 2026-05-05 08:10 | 37.79401 | 23.79732 | 2938 ft | 193 kts | 39° |
| 2026-05-05 08:10 | 37.80457 | 23.80789 | 3013 ft | 196 kts | 35° |
| 2026-05-05 08:11 | 37.81551 | 23.81832 | 3122 ft | 199 kts | 35° |
| 2026-05-05 08:11 | 37.82671 | 23.82894 | 2704 ft | 199 kts | 35° |
| 2026-05-05 08:11 | 37.83764 | 23.83931 | 2400 ft | 193 kts | 35° |
| 2026-05-05 08:11 | 37.84823 | 23.84934 | 2137 ft | 188 kts | 34° |
| 2026-05-05 08:12 | 37.85840 | 23.85899 | 1891 ft | 176 kts | 34° |
| 2026-05-05 08:12 | 37.86783 | 23.86794 | 1653 ft | 163 kts | 35° |
| 2026-05-05 08:12 | 37.87642 | 23.87609 | 1450 ft | 149 kts | 34° |
| 2026-05-05 08:12 | 37.88459 | 23.88384 | 1255 ft | 145 kts | 35° |
| 2026-05-05 08:13 | 37.89266 | 23.89148 | 1065 ft | 145 kts | 34° |
| 2026-05-05 08:13 | 37.90065 | 23.89905 | 890 ft | 144 kts | 36° |
| 2026-05-05 08:13 | 37.90862 | 23.90664 | 692 ft | 143 kts | 38° |
| 2026-05-05 08:13 | 37.91658 | 23.91417 | 526 ft | 143 kts | 38° |
| 2026-05-05 08:14 | 37.92454 | 23.92173 | 350 ft | 143 kts | 38° |
| 2026-05-05 08:14 | 37.93178 | 23.92872 | 295 ft | 114 kts | 37° |
| 2026-05-05 08:14 | 37.93706 | 23.93362 | 295 ft | 64 kts | 38° |
| 2026-05-05 08:14 | 37.93927 | 23.93645 | 293 ft | 33 kts | 72° |
| 2026-05-05 08:15 | 37.93978 | 23.93836 | 302 ft | 20 kts | 69° |
| 2026-05-05 08:15 | 37.94052 | 23.93982 | 302 ft | 21 kts | 39° |